sensor_id;sensor_type;location;lat;lon;timestamp;P1;durP1;ratioP1;P2;durP2;ratioP2
79403;SDS011;68858;48.642;9.142;2023-04-15T00:01:17;5.07;;;3.30;;
79403;SDS011;68858;48.642;9.142;2023-04-15T00:03:43;5.83;;;3.63;;
79403;SDS011;68858;48.642;9.142;2023-04-15T00:06:10;9.03;;;4.40;;
79403;SDS011;68858;48.642;9.142;2023-04-15T00:08:36;15.80;;;7.07;;
79403;SDS011;68858;48.642;9.142;2023-04-15T00:11:01;14.07;;;7.70;;
79403;SDS011;68858;48.642;9.142;2023-04-15T00:13:29;21.90;;;9.47;;
79403;SDS011;68858;48.642;9.142;2023-04-15T00:15:55;31.00;;;13.23;;
79403;SDS011;68858;48.642;9.142;2023-04-15T00:18:20;25.13;;;11.57;;
79403;SDS011;68858;48.642;9.142;2023-04-15T00:20:47;26.30;;;11.20;;
79403;SDS011;68858;48.642;9.142;2023-04-15T00:23:12;28.17;;;12.43;;
79403;SDS011;68858;48.642;9.142;2023-04-15T00:25:37;32.10;;;13.00;;
79403;SDS011;68858;48.642;9.142;2023-04-15T00:28:03;33.73;;;12.90;;
79403;SDS011;68858;48.642;9.142;2023-04-15T00:30:29;25.73;;;14.07;;
79403;SDS011;68858;48.642;9.142;2023-04-15T00:32:54;39.53;;;15.73;;
79403;SDS011;68858;48.642;9.142;2023-04-15T00:35:19;30.20;;;15.27;;
79403;SDS011;68858;48.642;9.142;2023-04-15T00:37:45;56.97;;;27.27;;
79403;SDS011;68858;48.642;9.142;2023-04-15T00:40:11;80.20;;;38.20;;
79403;SDS011;68858;48.642;9.142;2023-04-15T00:42:37;129.87;;;56.67;;
79403;SDS011;68858;48.642;9.142;2023-04-15T00:45:03;168.30;;;76.30;;
79403;SDS011;68858;48.642;9.142;2023-04-15T00:47:29;160.93;;;73.43;;
79403;SDS011;68858;48.642;9.142;2023-04-15T00:49:55;167.30;;;78.33;;
79403;SDS011;68858;48.642;9.142;2023-04-15T00:52:21;194.70;;;89.70;;
79403;SDS011;68858;48.642;9.142;2023-04-15T00:54:47;180.30;;;79.57;;
79403;SDS011;68858;48.642;9.142;2023-04-15T00:57:12;176.97;;;81.40;;
79403;SDS011;68858;48.642;9.142;2023-04-15T00:59:37;180.93;;;82.30;;
79403;SDS011;68858;48.642;9.142;2023-04-15T01:02:03;134.37;;;59.53;;
79403;SDS011;68858;48.642;9.142;2023-04-15T01:04:29;52.50;;;24.37;;
79403;SDS011;68858;48.642;9.142;2023-04-15T01:06:55;44.80;;;20.90;;
79403;SDS011;68858;48.642;9.142;2023-04-15T01:09:21;41.03;;;18.43;;
79403;SDS011;68858;48.642;9.142;2023-04-15T01:11:46;32.20;;;14.80;;
79403;SDS011;68858;48.642;9.142;2023-04-15T01:14:15;32.37;;;14.77;;
79403;SDS011;68858;48.642;9.142;2023-04-15T01:16:40;31.63;;;13.53;;
79403;SDS011;68858;48.642;9.142;2023-04-15T01:19:07;33.33;;;13.70;;
79403;SDS011;68858;48.642;9.142;2023-04-15T01:21:38;29.73;;;14.70;;
79403;SDS011;68858;48.642;9.142;2023-04-15T01:24:05;36.20;;;15.77;;
79403;SDS011;68858;48.642;9.142;2023-04-15T01:26:35;31.07;;;13.93;;
79403;SDS011;68858;48.642;9.142;2023-04-15T01:29:02;24.80;;;11.47;;
79403;SDS011;68858;48.642;9.142;2023-04-15T01:31:27;22.90;;;11.53;;
79403;SDS011;68858;48.642;9.142;2023-04-15T01:33:53;18.53;;;9.33;;
79403;SDS011;68858;48.642;9.142;2023-04-15T01:36:18;19.67;;;9.60;;
79403;SDS011;68858;48.642;9.142;2023-04-15T01:38:44;19.13;;;9.80;;
79403;SDS011;68858;48.642;9.142;2023-04-15T01:41:09;18.47;;;8.60;;
79403;SDS011;68858;48.642;9.142;2023-04-15T01:43:35;15.90;;;8.97;;
79403;SDS011;68858;48.642;9.142;2023-04-15T01:46:01;15.03;;;7.03;;
79403;SDS011;68858;48.642;9.142;2023-04-15T01:48:27;13.30;;;7.70;;
79403;SDS011;68858;48.642;9.142;2023-04-15T01:50:53;16.67;;;7.10;;
79403;SDS011;68858;48.642;9.142;2023-04-15T01:53:19;9.40;;;5.30;;
79403;SDS011;68858;48.642;9.142;2023-04-15T01:55:44;8.67;;;4.77;;
79403;SDS011;68858;48.642;9.142;2023-04-15T01:58:09;8.23;;;4.90;;
79403;SDS011;68858;48.642;9.142;2023-04-15T02:00:35;7.80;;;4.60;;
79403;SDS011;68858;48.642;9.142;2023-04-15T02:03:00;6.57;;;4.43;;
79403;SDS011;68858;48.642;9.142;2023-04-15T02:05:26;7.27;;;4.37;;
79403;SDS011;68858;48.642;9.142;2023-04-15T02:07:51;7.57;;;4.60;;
79403;SDS011;68858;48.642;9.142;2023-04-15T02:10:17;10.10;;;4.40;;
79403;SDS011;68858;48.642;9.142;2023-04-15T02:12:43;7.17;;;4.10;;
79403;SDS011;68858;48.642;9.142;2023-04-15T02:15:08;9.60;;;4.97;;
79403;SDS011;68858;48.642;9.142;2023-04-15T02:17:34;8.73;;;4.47;;
79403;SDS011;68858;48.642;9.142;2023-04-15T02:20:00;8.27;;;4.50;;
79403;SDS011;68858;48.642;9.142;2023-04-15T02:22:26;9.33;;;4.60;;
79403;SDS011;68858;48.642;9.142;2023-04-15T02:24:52;7.80;;;4.50;;
79403;SDS011;68858;48.642;9.142;2023-04-15T02:27:17;9.20;;;4.70;;
79403;SDS011;68858;48.642;9.142;2023-04-15T02:29:43;9.10;;;5.53;;
79403;SDS011;68858;48.642;9.142;2023-04-15T02:32:09;8.27;;;4.90;;
79403;SDS011;68858;48.642;9.142;2023-04-15T02:34:35;8.93;;;4.83;;
79403;SDS011;68858;48.642;9.142;2023-04-15T02:37:03;10.03;;;4.57;;
79403;SDS011;68858;48.642;9.142;2023-04-15T02:39:28;6.93;;;4.73;;
79403;SDS011;68858;48.642;9.142;2023-04-15T02:41:54;8.37;;;3.80;;
79403;SDS011;68858;48.642;9.142;2023-04-15T02:44:19;6.97;;;4.03;;
79403;SDS011;68858;48.642;9.142;2023-04-15T02:46:45;5.20;;;3.90;;
79403;SDS011;68858;48.642;9.142;2023-04-15T02:49:14;10.07;;;4.77;;
79403;SDS011;68858;48.642;9.142;2023-04-15T02:51:40;7.13;;;4.23;;
79403;SDS011;68858;48.642;9.142;2023-04-15T02:54:06;6.23;;;4.73;;
79403;SDS011;68858;48.642;9.142;2023-04-15T02:56:31;10.23;;;5.07;;
79403;SDS011;68858;48.642;9.142;2023-04-15T02:58:57;9.03;;;5.80;;
79403;SDS011;68858;48.642;9.142;2023-04-15T03:01:22;11.17;;;6.37;;
79403;SDS011;68858;48.642;9.142;2023-04-15T03:03:47;6.53;;;5.70;;
79403;SDS011;68858;48.642;9.142;2023-04-15T03:06:13;9.17;;;5.70;;
79403;SDS011;68858;48.642;9.142;2023-04-15T03:08:38;7.07;;;5.30;;
79403;SDS011;68858;48.642;9.142;2023-04-15T03:11:03;7.47;;;5.30;;
79403;SDS011;68858;48.642;9.142;2023-04-15T03:13:29;7.83;;;4.37;;
79403;SDS011;68858;48.642;9.142;2023-04-15T03:15:54;9.03;;;4.67;;
79403;SDS011;68858;48.642;9.142;2023-04-15T03:18:19;5.03;;;3.83;;
79403;SDS011;68858;48.642;9.142;2023-04-15T03:20:45;7.17;;;3.90;;
79403;SDS011;68858;48.642;9.142;2023-04-15T03:23:10;5.70;;;3.30;;
79403;SDS011;68858;48.642;9.142;2023-04-15T03:25:36;9.93;;;3.57;;
79403;SDS011;68858;48.642;9.142;2023-04-15T03:28:01;6.90;;;3.77;;
79403;SDS011;68858;48.642;9.142;2023-04-15T03:30:27;6.07;;;4.00;;
79403;SDS011;68858;48.642;9.142;2023-04-15T03:32:52;5.93;;;4.10;;
79403;SDS011;68858;48.642;9.142;2023-04-15T03:35:18;6.20;;;4.13;;
79403;SDS011;68858;48.642;9.142;2023-04-15T03:37:43;8.10;;;4.10;;
79403;SDS011;68858;48.642;9.142;2023-04-15T03:40:09;10.40;;;4.00;;
79403;SDS011;68858;48.642;9.142;2023-04-15T03:42:34;6.57;;;3.70;;
79403;SDS011;68858;48.642;9.142;2023-04-15T03:45:00;5.63;;;4.00;;
79403;SDS011;68858;48.642;9.142;2023-04-15T03:47:25;10.10;;;3.50;;
79403;SDS011;68858;48.642;9.142;2023-04-15T03:49:50;6.13;;;3.73;;
79403;SDS011;68858;48.642;9.142;2023-04-15T03:52:16;8.93;;;4.23;;
79403;SDS011;68858;48.642;9.142;2023-04-15T03:54:41;6.70;;;4.07;;
79403;SDS011;68858;48.642;9.142;2023-04-15T03:57:06;5.77;;;3.90;;
79403;SDS011;68858;48.642;9.142;2023-04-15T03:59:32;8.47;;;4.17;;
79403;SDS011;68858;48.642;9.142;2023-04-15T04:01:57;7.10;;;4.03;;
79403;SDS011;68858;48.642;9.142;2023-04-15T04:04:22;6.23;;;4.13;;
79403;SDS011;68858;48.642;9.142;2023-04-15T04:06:49;6.03;;;4.00;;
79403;SDS011;68858;48.642;9.142;2023-04-15T04:09:14;6.67;;;4.40;;
79403;SDS011;68858;48.642;9.142;2023-04-15T04:11:39;7.67;;;4.17;;
79403;SDS011;68858;48.642;9.142;2023-04-15T04:14:05;6.87;;;3.90;;
79403;SDS011;68858;48.642;9.142;2023-04-15T04:16:30;5.13;;;3.70;;
79403;SDS011;68858;48.642;9.142;2023-04-15T04:18:55;5.67;;;3.43;;
79403;SDS011;68858;48.642;9.142;2023-04-15T04:21:21;4.43;;;3.40;;
79403;SDS011;68858;48.642;9.142;2023-04-15T04:23:46;5.03;;;3.53;;
79403;SDS011;68858;48.642;9.142;2023-04-15T04:26:12;6.23;;;3.63;;
79403;SDS011;68858;48.642;9.142;2023-04-15T04:28:37;6.67;;;3.90;;
79403;SDS011;68858;48.642;9.142;2023-04-15T04:31:07;8.53;;;3.90;;
79403;SDS011;68858;48.642;9.142;2023-04-15T04:33:32;5.00;;;3.70;;
79403;SDS011;68858;48.642;9.142;2023-04-15T04:35:58;5.43;;;3.43;;
79403;SDS011;68858;48.642;9.142;2023-04-15T04:38:23;7.87;;;3.50;;
79403;SDS011;68858;48.642;9.142;2023-04-15T04:40:48;9.43;;;3.87;;
79403;SDS011;68858;48.642;9.142;2023-04-15T04:43:14;5.20;;;3.60;;
79403;SDS011;68858;48.642;9.142;2023-04-15T04:45:40;6.83;;;3.97;;
79403;SDS011;68858;48.642;9.142;2023-04-15T04:48:05;6.63;;;3.60;;
79403;SDS011;68858;48.642;9.142;2023-04-15T04:50:32;6.37;;;3.50;;
79403;SDS011;68858;48.642;9.142;2023-04-15T04:52:58;9.63;;;4.17;;
79403;SDS011;68858;48.642;9.142;2023-04-15T04:55:24;6.53;;;3.70;;
79403;SDS011;68858;48.642;9.142;2023-04-15T04:57:49;4.93;;;3.67;;
79403;SDS011;68858;48.642;9.142;2023-04-15T05:00:16;6.60;;;4.00;;
79403;SDS011;68858;48.642;9.142;2023-04-15T05:02:41;6.47;;;3.80;;
79403;SDS011;68858;48.642;9.142;2023-04-15T05:05:08;6.07;;;3.57;;
79403;SDS011;68858;48.642;9.142;2023-04-15T05:07:34;6.97;;;3.67;;
79403;SDS011;68858;48.642;9.142;2023-04-15T05:09:59;8.83;;;3.70;;
79403;SDS011;68858;48.642;9.142;2023-04-15T05:12:25;6.47;;;3.90;;
79403;SDS011;68858;48.642;9.142;2023-04-15T05:14:50;6.97;;;4.37;;
79403;SDS011;68858;48.642;9.142;2023-04-15T05:17:15;7.23;;;5.37;;
79403;SDS011;68858;48.642;9.142;2023-04-15T05:19:41;7.30;;;4.70;;
79403;SDS011;68858;48.642;9.142;2023-04-15T05:22:06;5.27;;;4.10;;
79403;SDS011;68858;48.642;9.142;2023-04-15T05:24:32;7.93;;;4.23;;
79403;SDS011;68858;48.642;9.142;2023-04-15T05:26:57;6.30;;;4.63;;
79403;SDS011;68858;48.642;9.142;2023-04-15T05:29:22;5.73;;;4.13;;
79403;SDS011;68858;48.642;9.142;2023-04-15T05:31:48;7.67;;;4.83;;
79403;SDS011;68858;48.642;9.142;2023-04-15T05:34:13;6.40;;;4.60;;
79403;SDS011;68858;48.642;9.142;2023-04-15T05:36:40;5.87;;;4.30;;
79403;SDS011;68858;48.642;9.142;2023-04-15T05:39:05;7.27;;;4.97;;
79403;SDS011;68858;48.642;9.142;2023-04-15T05:41:31;6.67;;;4.47;;
79403;SDS011;68858;48.642;9.142;2023-04-15T05:43:56;6.90;;;4.20;;
79403;SDS011;68858;48.642;9.142;2023-04-15T05:46:21;6.70;;;4.20;;
79403;SDS011;68858;48.642;9.142;2023-04-15T05:48:47;6.00;;;4.07;;
79403;SDS011;68858;48.642;9.142;2023-04-15T05:51:12;8.03;;;4.03;;
79403;SDS011;68858;48.642;9.142;2023-04-15T05:53:37;7.43;;;4.17;;
79403;SDS011;68858;48.642;9.142;2023-04-15T05:56:04;6.83;;;4.40;;
79403;SDS011;68858;48.642;9.142;2023-04-15T05:58:29;4.13;;;3.27;;
79403;SDS011;68858;48.642;9.142;2023-04-15T06:00:54;6.73;;;4.00;;
79403;SDS011;68858;48.642;9.142;2023-04-15T06:03:20;6.33;;;3.93;;
79403;SDS011;68858;48.642;9.142;2023-04-15T06:05:46;5.20;;;4.27;;
79403;SDS011;68858;48.642;9.142;2023-04-15T06:08:12;7.47;;;4.63;;
79403;SDS011;68858;48.642;9.142;2023-04-15T06:10:37;6.10;;;3.77;;
79403;SDS011;68858;48.642;9.142;2023-04-15T06:13:03;5.80;;;3.67;;
79403;SDS011;68858;48.642;9.142;2023-04-15T06:15:28;6.50;;;4.83;;
79403;SDS011;68858;48.642;9.142;2023-04-15T06:17:54;5.50;;;4.53;;
79403;SDS011;68858;48.642;9.142;2023-04-15T06:20:20;7.63;;;5.07;;
79403;SDS011;68858;48.642;9.142;2023-04-15T06:22:45;7.17;;;5.10;;
79403;SDS011;68858;48.642;9.142;2023-04-15T06:25:10;6.10;;;4.93;;
79403;SDS011;68858;48.642;9.142;2023-04-15T06:27:36;6.50;;;4.33;;
79403;SDS011;68858;48.642;9.142;2023-04-15T06:30:01;6.83;;;4.30;;
79403;SDS011;68858;48.642;9.142;2023-04-15T06:32:27;6.13;;;4.10;;
79403;SDS011;68858;48.642;9.142;2023-04-15T06:34:52;6.93;;;4.53;;
79403;SDS011;68858;48.642;9.142;2023-04-15T06:37:17;5.50;;;4.07;;
79403;SDS011;68858;48.642;9.142;2023-04-15T06:39:43;6.97;;;4.40;;
79403;SDS011;68858;48.642;9.142;2023-04-15T06:42:08;4.43;;;3.83;;
79403;SDS011;68858;48.642;9.142;2023-04-15T06:44:35;6.77;;;4.10;;
79403;SDS011;68858;48.642;9.142;2023-04-15T06:47:01;6.90;;;3.87;;
79403;SDS011;68858;48.642;9.142;2023-04-15T06:49:26;6.87;;;3.67;;
79403;SDS011;68858;48.642;9.142;2023-04-15T06:51:51;6.37;;;3.50;;
79403;SDS011;68858;48.642;9.142;2023-04-15T06:54:17;5.33;;;3.60;;
79403;SDS011;68858;48.642;9.142;2023-04-15T06:56:42;5.07;;;3.27;;
79403;SDS011;68858;48.642;9.142;2023-04-15T06:59:08;5.27;;;3.30;;
79403;SDS011;68858;48.642;9.142;2023-04-15T07:01:34;5.23;;;3.77;;
79403;SDS011;68858;48.642;9.142;2023-04-15T07:03:59;6.03;;;4.67;;
79403;SDS011;68858;48.642;9.142;2023-04-15T07:06:25;4.67;;;3.50;;
79403;SDS011;68858;48.642;9.142;2023-04-15T07:08:51;4.47;;;3.67;;
79403;SDS011;68858;48.642;9.142;2023-04-15T07:11:16;6.93;;;5.50;;
79403;SDS011;68858;48.642;9.142;2023-04-15T07:13:42;5.90;;;4.20;;
79403;SDS011;68858;48.642;9.142;2023-04-15T07:16:07;5.80;;;4.57;;
79403;SDS011;68858;48.642;9.142;2023-04-15T07:18:33;5.77;;;4.00;;
79403;SDS011;68858;48.642;9.142;2023-04-15T07:20:58;5.00;;;3.77;;
79403;SDS011;68858;48.642;9.142;2023-04-15T07:23:24;6.33;;;3.30;;
79403;SDS011;68858;48.642;9.142;2023-04-15T07:25:49;3.73;;;2.93;;
79403;SDS011;68858;48.642;9.142;2023-04-15T07:28:15;5.43;;;3.00;;
79403;SDS011;68858;48.642;9.142;2023-04-15T07:30:40;7.43;;;6.60;;
79403;SDS011;68858;48.642;9.142;2023-04-15T07:33:06;8.73;;;5.50;;
79403;SDS011;68858;48.642;9.142;2023-04-15T07:35:31;6.57;;;5.07;;
79403;SDS011;68858;48.642;9.142;2023-04-15T07:37:57;6.50;;;5.50;;
79403;SDS011;68858;48.642;9.142;2023-04-15T07:40:22;7.60;;;4.37;;
79403;SDS011;68858;48.642;9.142;2023-04-15T07:42:48;7.07;;;4.13;;
79403;SDS011;68858;48.642;9.142;2023-04-15T07:45:13;6.70;;;4.17;;
79403;SDS011;68858;48.642;9.142;2023-04-15T07:47:40;6.33;;;4.00;;
79403;SDS011;68858;48.642;9.142;2023-04-15T07:50:07;5.40;;;3.90;;
79403;SDS011;68858;48.642;9.142;2023-04-15T07:52:34;5.70;;;3.20;;
79403;SDS011;68858;48.642;9.142;2023-04-15T07:55:04;5.57;;;3.40;;
79403;SDS011;68858;48.642;9.142;2023-04-15T07:57:35;5.93;;;3.30;;
79403;SDS011;68858;48.642;9.142;2023-04-15T08:00:01;6.00;;;3.13;;
79403;SDS011;68858;48.642;9.142;2023-04-15T08:02:27;4.53;;;3.10;;
79403;SDS011;68858;48.642;9.142;2023-04-15T08:04:53;6.27;;;3.83;;
79403;SDS011;68858;48.642;9.142;2023-04-15T08:07:18;6.03;;;3.37;;
79403;SDS011;68858;48.642;9.142;2023-04-15T08:09:43;3.83;;;2.83;;
79403;SDS011;68858;48.642;9.142;2023-04-15T08:12:09;3.40;;;2.60;;
79403;SDS011;68858;48.642;9.142;2023-04-15T08:14:37;4.43;;;2.90;;
79403;SDS011;68858;48.642;9.142;2023-04-15T08:17:03;4.53;;;2.60;;
79403;SDS011;68858;48.642;9.142;2023-04-15T08:19:28;5.87;;;3.27;;
79403;SDS011;68858;48.642;9.142;2023-04-15T08:21:54;3.93;;;3.00;;
79403;SDS011;68858;48.642;9.142;2023-04-15T08:24:20;5.93;;;3.00;;
79403;SDS011;68858;48.642;9.142;2023-04-15T08:26:46;6.50;;;3.10;;
79403;SDS011;68858;48.642;9.142;2023-04-15T08:29:11;4.67;;;2.67;;
79403;SDS011;68858;48.642;9.142;2023-04-15T08:31:37;6.83;;;2.80;;
79403;SDS011;68858;48.642;9.142;2023-04-15T08:34:02;6.10;;;3.10;;
79403;SDS011;68858;48.642;9.142;2023-04-15T08:36:28;5.10;;;3.17;;
79403;SDS011;68858;48.642;9.142;2023-04-15T08:38:54;6.43;;;3.27;;
79403;SDS011;68858;48.642;9.142;2023-04-15T08:41:23;5.23;;;3.13;;
79403;SDS011;68858;48.642;9.142;2023-04-15T08:44:02;7.03;;;2.73;;
79403;SDS011;68858;48.642;9.142;2023-04-15T08:46:29;3.70;;;2.80;;
79403;SDS011;68858;48.642;9.142;2023-04-15T08:48:56;6.53;;;2.83;;
79403;SDS011;68858;48.642;9.142;2023-04-15T08:51:22;5.57;;;2.93;;
79403;SDS011;68858;48.642;9.142;2023-04-15T08:53:48;4.87;;;2.60;;
79403;SDS011;68858;48.642;9.142;2023-04-15T08:56:14;3.97;;;2.83;;
79403;SDS011;68858;48.642;9.142;2023-04-15T08:58:40;4.30;;;2.60;;
79403;SDS011;68858;48.642;9.142;2023-04-15T09:01:07;3.77;;;2.23;;
79403;SDS011;68858;48.642;9.142;2023-04-15T09:03:32;6.07;;;2.30;;
79403;SDS011;68858;48.642;9.142;2023-04-15T09:05:58;3.57;;;2.30;;
79403;SDS011;68858;48.642;9.142;2023-04-15T09:08:24;5.17;;;2.53;;
79403;SDS011;68858;48.642;9.142;2023-04-15T09:10:49;5.00;;;2.33;;
79403;SDS011;68858;48.642;9.142;2023-04-15T09:13:17;3.67;;;2.00;;
79403;SDS011;68858;48.642;9.142;2023-04-15T09:15:42;3.80;;;2.20;;
79403;SDS011;68858;48.642;9.142;2023-04-15T09:18:10;3.07;;;2.00;;
79403;SDS011;68858;48.642;9.142;2023-04-15T09:20:37;4.07;;;2.47;;
79403;SDS011;68858;48.642;9.142;2023-04-15T09:23:12;2.33;;;2.13;;
79403;SDS011;68858;48.642;9.142;2023-04-15T09:25:38;3.67;;;2.20;;
79403;SDS011;68858;48.642;9.142;2023-04-15T09:28:06;3.80;;;2.07;;
79403;SDS011;68858;48.642;9.142;2023-04-15T09:30:31;4.03;;;2.33;;
79403;SDS011;68858;48.642;9.142;2023-04-15T09:32:58;4.53;;;2.60;;
79403;SDS011;68858;48.642;9.142;2023-04-15T09:35:26;4.50;;;2.30;;
79403;SDS011;68858;48.642;9.142;2023-04-15T09:37:53;3.23;;;2.20;;
79403;SDS011;68858;48.642;9.142;2023-04-15T09:40:39;2.23;;;2.00;;
79403;SDS011;68858;48.642;9.142;2023-04-15T09:43:06;3.07;;;2.03;;
79403;SDS011;68858;48.642;9.142;2023-04-15T09:45:33;3.33;;;2.37;;
79403;SDS011;68858;48.642;9.142;2023-04-15T09:48:21;4.57;;;2.70;;
79403;SDS011;68858;48.642;9.142;2023-04-15T09:50:47;4.50;;;1.87;;
79403;SDS011;68858;48.642;9.142;2023-04-15T09:53:20;3.07;;;1.97;;
79403;SDS011;68858;48.642;9.142;2023-04-15T09:55:54;3.37;;;1.83;;
79403;SDS011;68858;48.642;9.142;2023-04-15T09:58:21;3.13;;;1.70;;
79403;SDS011;68858;48.642;9.142;2023-04-15T10:00:51;3.00;;;1.83;;
79403;SDS011;68858;48.642;9.142;2023-04-15T10:03:21;2.60;;;1.90;;
79403;SDS011;68858;48.642;9.142;2023-04-15T10:05:48;3.90;;;1.70;;
79403;SDS011;68858;48.642;9.142;2023-04-15T10:08:17;3.03;;;1.60;;
79403;SDS011;68858;48.642;9.142;2023-04-15T10:10:44;5.00;;;1.73;;
79403;SDS011;68858;48.642;9.142;2023-04-15T10:13:09;2.77;;;1.47;;
79403;SDS011;68858;48.642;9.142;2023-04-15T10:15:37;2.67;;;1.60;;
79403;SDS011;68858;48.642;9.142;2023-04-15T10:18:02;2.73;;;1.47;;
79403;SDS011;68858;48.642;9.142;2023-04-15T10:20:29;3.47;;;2.00;;
79403;SDS011;68858;48.642;9.142;2023-04-15T10:22:55;3.67;;;1.60;;
79403;SDS011;68858;48.642;9.142;2023-04-15T10:25:21;3.57;;;1.57;;
79403;SDS011;68858;48.642;9.142;2023-04-15T10:27:46;3.50;;;1.90;;
79403;SDS011;68858;48.642;9.142;2023-04-15T10:30:12;4.50;;;2.27;;
79403;SDS011;68858;48.642;9.142;2023-04-15T10:32:38;3.60;;;1.80;;
79403;SDS011;68858;48.642;9.142;2023-04-15T10:35:04;2.93;;;1.60;;
79403;SDS011;68858;48.642;9.142;2023-04-15T10:37:37;3.87;;;1.60;;
79403;SDS011;68858;48.642;9.142;2023-04-15T10:40:36;4.93;;;2.17;;
79403;SDS011;68858;48.642;9.142;2023-04-15T10:42:58;3.97;;;1.83;;
79403;SDS011;68858;48.642;9.142;2023-04-15T10:45:34;2.83;;;1.60;;
79403;SDS011;68858;48.642;9.142;2023-04-15T10:48:01;2.60;;;1.83;;
79403;SDS011;68858;48.642;9.142;2023-04-15T10:50:29;3.87;;;2.23;;
79403;SDS011;68858;48.642;9.142;2023-04-15T10:52:55;3.73;;;2.00;;
79403;SDS011;68858;48.642;9.142;2023-04-15T10:55:22;2.17;;;1.90;;
79403;SDS011;68858;48.642;9.142;2023-04-15T10:57:54;3.10;;;2.00;;
79403;SDS011;68858;48.642;9.142;2023-04-15T11:00:26;3.27;;;1.80;;
79403;SDS011;68858;48.642;9.142;2023-04-15T11:02:54;3.53;;;2.23;;
79403;SDS011;68858;48.642;9.142;2023-04-15T11:05:47;3.17;;;2.50;;
79403;SDS011;68858;48.642;9.142;2023-04-15T11:08:15;4.13;;;2.23;;
79403;SDS011;68858;48.642;9.142;2023-04-15T11:15:35;3.57;;;2.17;;
79403;SDS011;68858;48.642;9.142;2023-04-15T11:18:10;3.97;;;2.43;;
79403;SDS011;68858;48.642;9.142;2023-04-15T11:20:48;4.37;;;1.87;;
79403;SDS011;68858;48.642;9.142;2023-04-15T11:23:23;4.77;;;2.20;;
79403;SDS011;68858;48.642;9.142;2023-04-15T11:25:53;3.50;;;2.37;;
79403;SDS011;68858;48.642;9.142;2023-04-15T11:28:19;2.97;;;2.63;;
79403;SDS011;68858;48.642;9.142;2023-04-15T11:30:44;4.60;;;3.00;;
79403;SDS011;68858;48.642;9.142;2023-04-15T11:33:10;4.50;;;2.93;;
79403;SDS011;68858;48.642;9.142;2023-04-15T11:35:36;4.27;;;2.83;;
79403;SDS011;68858;48.642;9.142;2023-04-15T11:38:04;4.93;;;3.13;;
79403;SDS011;68858;48.642;9.142;2023-04-15T11:40:33;4.70;;;2.80;;
79403;SDS011;68858;48.642;9.142;2023-04-15T11:43:18;4.43;;;2.50;;
79403;SDS011;68858;48.642;9.142;2023-04-15T11:45:52;9.70;;;3.17;;
79403;SDS011;68858;48.642;9.142;2023-04-15T11:48:20;2.83;;;2.33;;
79403;SDS011;68858;48.642;9.142;2023-04-15T11:50:51;6.37;;;3.07;;
79403;SDS011;68858;48.642;9.142;2023-04-15T11:53:21;4.70;;;2.60;;
79403;SDS011;68858;48.642;9.142;2023-04-15T11:55:49;3.70;;;2.87;;
79403;SDS011;68858;48.642;9.142;2023-04-15T11:58:22;4.07;;;2.97;;
79403;SDS011;68858;48.642;9.142;2023-04-15T12:03:17;2.93;;;2.43;;
79403;SDS011;68858;48.642;9.142;2023-04-15T12:14:01;5.97;;;2.43;;
79403;SDS011;68858;48.642;9.142;2023-04-15T12:16:28;7.03;;;3.37;;
79403;SDS011;68858;48.642;9.142;2023-04-15T12:18:55;3.47;;;2.47;;
79403;SDS011;68858;48.642;9.142;2023-04-15T12:21:22;9.87;;;5.00;;
79403;SDS011;68858;48.642;9.142;2023-04-15T12:23:49;4.87;;;2.43;;
79403;SDS011;68858;48.642;9.142;2023-04-15T12:26:24;5.67;;;2.40;;
79403;SDS011;68858;48.642;9.142;2023-04-15T12:28:59;4.30;;;2.23;;
79403;SDS011;68858;48.642;9.142;2023-04-15T12:31:26;3.93;;;2.17;;
79403;SDS011;68858;48.642;9.142;2023-04-15T12:33:53;3.07;;;2.00;;
79403;SDS011;68858;48.642;9.142;2023-04-15T12:36:19;5.03;;;2.10;;
79403;SDS011;68858;48.642;9.142;2023-04-15T12:38:44;3.93;;;2.30;;
79403;SDS011;68858;48.642;9.142;2023-04-15T12:41:10;3.53;;;2.00;;
79403;SDS011;68858;48.642;9.142;2023-04-15T12:43:35;3.13;;;2.13;;
79403;SDS011;68858;48.642;9.142;2023-04-15T12:46:01;5.27;;;2.50;;
79403;SDS011;68858;48.642;9.142;2023-04-15T12:48:27;3.47;;;2.50;;
79403;SDS011;68858;48.642;9.142;2023-04-15T12:50:52;3.53;;;2.90;;
79403;SDS011;68858;48.642;9.142;2023-04-15T12:53:18;5.80;;;2.60;;
79403;SDS011;68858;48.642;9.142;2023-04-15T12:55:44;4.33;;;2.63;;
79403;SDS011;68858;48.642;9.142;2023-04-15T12:58:09;4.40;;;3.10;;
79403;SDS011;68858;48.642;9.142;2023-04-15T13:00:36;4.97;;;2.63;;
79403;SDS011;68858;48.642;9.142;2023-04-15T13:03:01;4.67;;;2.80;;
79403;SDS011;68858;48.642;9.142;2023-04-15T13:05:27;3.63;;;2.83;;
79403;SDS011;68858;48.642;9.142;2023-04-15T13:07:52;3.97;;;2.97;;
79403;SDS011;68858;48.642;9.142;2023-04-15T13:10:17;4.17;;;2.97;;
79403;SDS011;68858;48.642;9.142;2023-04-15T13:12:43;3.73;;;2.90;;
79403;SDS011;68858;48.642;9.142;2023-04-15T13:15:10;5.63;;;3.10;;
79403;SDS011;68858;48.642;9.142;2023-04-15T13:17:36;5.07;;;3.53;;
79403;SDS011;68858;48.642;9.142;2023-04-15T13:20:02;3.30;;;2.83;;
79403;SDS011;68858;48.642;9.142;2023-04-15T13:22:27;4.60;;;3.10;;
79403;SDS011;68858;48.642;9.142;2023-04-15T13:24:53;5.40;;;2.83;;
79403;SDS011;68858;48.642;9.142;2023-04-15T13:27:18;4.40;;;3.27;;
79403;SDS011;68858;48.642;9.142;2023-04-15T13:29:43;2.90;;;2.70;;
79403;SDS011;68858;48.642;9.142;2023-04-15T13:32:09;3.67;;;2.87;;
79403;SDS011;68858;48.642;9.142;2023-04-15T13:34:34;3.53;;;2.83;;
79403;SDS011;68858;48.642;9.142;2023-04-15T13:37:05;4.47;;;2.70;;
79403;SDS011;68858;48.642;9.142;2023-04-15T13:39:31;3.13;;;2.83;;
79403;SDS011;68858;48.642;9.142;2023-04-15T13:41:56;3.07;;;2.70;;
79403;SDS011;68858;48.642;9.142;2023-04-15T13:44:22;4.80;;;2.40;;
79403;SDS011;68858;48.642;9.142;2023-04-15T13:46:47;4.00;;;2.67;;
79403;SDS011;68858;48.642;9.142;2023-04-15T13:49:13;5.70;;;3.10;;
79403;SDS011;68858;48.642;9.142;2023-04-15T13:51:38;4.97;;;2.67;;
79403;SDS011;68858;48.642;9.142;2023-04-15T13:54:04;2.77;;;2.30;;
79403;SDS011;68858;48.642;9.142;2023-04-15T13:56:30;6.33;;;2.73;;
79403;SDS011;68858;48.642;9.142;2023-04-15T13:58:55;3.87;;;2.53;;
79403;SDS011;68858;48.642;9.142;2023-04-15T14:01:23;4.03;;;2.60;;
79403;SDS011;68858;48.642;9.142;2023-04-15T14:03:49;4.43;;;3.03;;
79403;SDS011;68858;48.642;9.142;2023-04-15T14:06:14;3.83;;;2.73;;
79403;SDS011;68858;48.642;9.142;2023-04-15T14:08:39;5.27;;;2.50;;
79403;SDS011;68858;48.642;9.142;2023-04-15T14:11:06;3.53;;;2.40;;
79403;SDS011;68858;48.642;9.142;2023-04-15T14:13:31;2.50;;;2.30;;
79403;SDS011;68858;48.642;9.142;2023-04-15T14:15:57;3.13;;;2.30;;
79403;SDS011;68858;48.642;9.142;2023-04-15T14:18:22;3.37;;;2.30;;
79403;SDS011;68858;48.642;9.142;2023-04-15T14:20:47;3.77;;;2.40;;
79403;SDS011;68858;48.642;9.142;2023-04-15T14:23:13;3.47;;;2.77;;
79403;SDS011;68858;48.642;9.142;2023-04-15T14:25:38;2.60;;;2.40;;
79403;SDS011;68858;48.642;9.142;2023-04-15T14:28:04;3.27;;;2.20;;
79403;SDS011;68858;48.642;9.142;2023-04-15T14:30:29;3.23;;;2.07;;
79403;SDS011;68858;48.642;9.142;2023-04-15T14:32:54;2.97;;;2.20;;
79403;SDS011;68858;48.642;9.142;2023-04-15T14:35:20;2.80;;;1.50;;
79403;SDS011;68858;48.642;9.142;2023-04-15T14:37:45;3.07;;;1.27;;
79403;SDS011;68858;48.642;9.142;2023-04-15T14:40:11;1.23;;;0.90;;
79403;SDS011;68858;48.642;9.142;2023-04-15T14:42:36;2.20;;;1.40;;
79403;SDS011;68858;48.642;9.142;2023-04-15T14:45:01;1.70;;;1.60;;
79403;SDS011;68858;48.642;9.142;2023-04-15T14:47:27;2.23;;;1.10;;
79403;SDS011;68858;48.642;9.142;2023-04-15T14:49:52;2.10;;;1.40;;
79403;SDS011;68858;48.642;9.142;2023-04-15T14:52:17;1.60;;;0.90;;
79403;SDS011;68858;48.642;9.142;2023-04-15T14:54:43;4.50;;;2.67;;
79403;SDS011;68858;48.642;9.142;2023-04-15T14:57:08;2.77;;;1.80;;